sensor_id;sensor_type;location;lat;lon;timestamp;pressure;altitude;pressure_sealevel;temperature
44429;BMP180;30134;47.866;-4.222;2023-02-02T00:00:36;103376.00;;;23.70
44429;BMP180;30134;47.866;-4.222;2023-02-02T00:03:02;103377.00;;;23.70
44429;BMP180;30134;47.866;-4.222;2023-02-02T00:05:35;103379.00;;;23.70
44429;BMP180;30134;47.866;-4.222;2023-02-02T00:08:01;103374.00;;;23.70
44429;BMP180;30134;47.866;-4.222;2023-02-02T00:10:27;103372.00;;;23.70
44429;BMP180;30134;47.866;-4.222;2023-02-02T00:12:53;103376.00;;;23.70
44429;BMP180;30134;47.866;-4.222;2023-02-02T00:15:23;103374.00;;;23.70
44429;BMP180;30134;47.866;-4.222;2023-02-02T00:17:51;103372.00;;;23.70
44429;BMP180;30134;47.866;-4.222;2023-02-02T00:20:17;103370.00;;;23.70
44429;BMP180;30134;47.866;-4.222;2023-02-02T00:22:43;103376.00;;;23.70
44429;BMP180;30134;47.866;-4.222;2023-02-02T00:25:09;103374.00;;;23.70
44429;BMP180;30134;47.866;-4.222;2023-02-02T00:27:35;103378.00;;;23.70
44429;BMP180;30134;47.866;-4.222;2023-02-02T00:30:01;103376.00;;;23.70
44429;BMP180;30134;47.866;-4.222;2023-02-02T00:32:26;103374.00;;;23.70
44429;BMP180;30134;47.866;-4.222;2023-02-02T00:34:52;103377.00;;;23.70
44429;BMP180;30134;47.866;-4.222;2023-02-02T00:37:18;103370.00;;;23.70
44429;BMP180;30134;47.866;-4.222;2023-02-02T00:39:44;103364.00;;;23.70
44429;BMP180;30134;47.866;-4.222;2023-02-02T00:42:10;103368.00;;;23.70
44429;BMP180;30134;47.866;-4.222;2023-02-02T00:44:36;103368.00;;;23.70
44429;BMP180;30134;47.866;-4.222;2023-02-02T00:47:20;103368.00;;;23.70
44429;BMP180;30134;47.866;-4.222;2023-02-02T00:49:47;103362.00;;;23.70
44429;BMP180;30134;47.866;-4.222;2023-02-02T00:52:13;103359.00;;;23.70
44429;BMP180;30134;47.866;-4.222;2023-02-02T00:54:39;103360.00;;;23.70
44429;BMP180;30134;47.866;-4.222;2023-02-02T00:57:05;103350.00;;;23.70
44429;BMP180;30134;47.866;-4.222;2023-02-02T00:59:31;103350.00;;;23.70
44429;BMP180;30134;47.866;-4.222;2023-02-02T01:01:57;103345.00;;;23.70
44429;BMP180;30134;47.866;-4.222;2023-02-02T01:04:24;103345.00;;;23.70
44429;BMP180;30134;47.866;-4.222;2023-02-02T01:06:50;103342.00;;;23.70
44429;BMP180;30134;47.866;-4.222;2023-02-02T01:09:16;103343.00;;;23.70
44429;BMP180;30134;47.866;-4.222;2023-02-02T01:11:41;103336.00;;;23.70
44429;BMP180;30134;47.866;-4.222;2023-02-02T01:14:07;103350.00;;;23.70
44429;BMP180;30134;47.866;-4.222;2023-02-02T01:16:33;103336.00;;;23.70
44429;BMP180;30134;47.866;-4.222;2023-02-02T01:18:59;103336.00;;;23.70
44429;BMP180;30134;47.866;-4.222;2023-02-02T01:21:25;103338.00;;;23.70
44429;BMP180;30134;47.866;-4.222;2023-02-02T01:23:51;103334.00;;;23.70
44429;BMP180;30134;47.866;-4.222;2023-02-02T01:26:17;103333.00;;;23.70
44429;BMP180;30134;47.866;-4.222;2023-02-02T01:28:44;103338.00;;;23.70
44429;BMP180;30134;47.866;-4.222;2023-02-02T01:31:14;103333.00;;;23.70
44429;BMP180;30134;47.866;-4.222;2023-02-02T01:33:41;103335.00;;;23.70
44429;BMP180;30134;47.866;-4.222;2023-02-02T01:36:11;103326.00;;;23.70
44429;BMP180;30134;47.866;-4.222;2023-02-02T01:38:37;103327.00;;;23.70
44429;BMP180;30134;47.866;-4.222;2023-02-02T01:41:05;103322.00;;;23.70
44429;BMP180;30134;47.866;-4.222;2023-02-02T01:46:52;103317.00;;;23.70
44429;BMP180;30134;47.866;-4.222;2023-02-02T01:49:06;103318.00;;;23.70
44429;BMP180;30134;47.866;-4.222;2023-02-02T01:51:54;103318.00;;;23.70
44429;BMP180;30134;47.866;-4.222;2023-02-02T01:54:32;103317.00;;;23.70
44429;BMP180;30134;47.866;-4.222;2023-02-02T01:57:05;103314.00;;;23.70
44429;BMP180;30134;47.866;-4.222;2023-02-02T01:59:33;103311.00;;;23.70
44429;BMP180;30134;47.866;-4.222;2023-02-02T02:01:59;103318.00;;;23.70
44429;BMP180;30134;47.866;-4.222;2023-02-02T02:04:25;103309.00;;;23.70
44429;BMP180;30134;47.866;-4.222;2023-02-02T02:06:52;103316.00;;;23.70
44429;BMP180;30134;47.866;-4.222;2023-02-02T02:09:18;103311.00;;;23.70
44429;BMP180;30134;47.866;-4.222;2023-02-02T02:11:44;103322.00;;;23.70
44429;BMP180;30134;47.866;-4.222;2023-02-02T02:14:10;103328.00;;;23.70
44429;BMP180;30134;47.866;-4.222;2023-02-02T02:34:20;103306.00;;;23.70
44429;BMP180;30134;47.866;-4.222;2023-02-02T02:42:39;103302.00;;;23.70
44429;BMP180;30134;47.866;-4.222;2023-02-02T02:45:07;103302.00;;;23.70
44429;BMP180;30134;47.866;-4.222;2023-02-02T02:47:34;103306.00;;;23.70
44429;BMP180;30134;47.866;-4.222;2023-02-02T02:50:00;103308.00;;;23.70
44429;BMP180;30134;47.866;-4.222;2023-02-02T02:52:26;103304.00;;;23.70
44429;BMP180;30134;47.866;-4.222;2023-02-02T02:54:53;103290.00;;;23.70
44429;BMP180;30134;47.866;-4.222;2023-02-02T03:10:53;103293.00;;;23.70
44429;BMP180;30134;47.866;-4.222;2023-02-02T03:13:20;103290.00;;;23.70
44429;BMP180;30134;47.866;-4.222;2023-02-02T03:15:46;103288.00;;;23.70
44429;BMP180;30134;47.866;-4.222;2023-02-02T03:18:14;103281.00;;;23.70
44429;BMP180;30134;47.866;-4.222;2023-02-02T03:20:42;103289.00;;;23.70
44429;BMP180;30134;47.866;-4.222;2023-02-02T03:23:08;103284.00;;;23.70
44429;BMP180;30134;47.866;-4.222;2023-02-02T03:25:34;103281.00;;;23.70
44429;BMP180;30134;47.866;-4.222;2023-02-02T03:28:00;103268.00;;;23.70
44429;BMP180;30134;47.866;-4.222;2023-02-02T03:30:26;103271.00;;;23.70
44429;BMP180;30134;47.866;-4.222;2023-02-02T03:32:52;103279.00;;;23.70
44429;BMP180;30134;47.866;-4.222;2023-02-02T03:35:18;103280.00;;;23.70
44429;BMP180;30134;47.866;-4.222;2023-02-02T03:37:46;103275.00;;;23.70
44429;BMP180;30134;47.866;-4.222;2023-02-02T03:40:12;103278.00;;;23.70
44429;BMP180;30134;47.866;-4.222;2023-02-02T03:42:38;103273.00;;;23.70
44429;BMP180;30134;47.866;-4.222;2023-02-02T03:45:05;103269.00;;;23.70
44429;BMP180;30134;47.866;-4.222;2023-02-02T03:47:31;103266.00;;;23.70
44429;BMP180;30134;47.866;-4.222;2023-02-02T03:50:04;103271.00;;;23.70
44429;BMP180;30134;47.866;-4.222;2023-02-02T03:52:30;103270.00;;;23.70
44429;BMP180;30134;47.866;-4.222;2023-02-02T03:54:56;103274.00;;;23.70
44429;BMP180;30134;47.866;-4.222;2023-02-02T03:57:22;103271.00;;;23.70
44429;BMP180;30134;47.866;-4.222;2023-02-02T03:59:48;103279.00;;;23.70
44429;BMP180;30134;47.866;-4.222;2023-02-02T04:02:14;103277.00;;;23.70
44429;BMP180;30134;47.866;-4.222;2023-02-02T04:04:39;103278.00;;;23.70
44429;BMP180;30134;47.866;-4.222;2023-02-02T04:07:05;103266.00;;;23.70
44429;BMP180;30134;47.866;-4.222;2023-02-02T04:09:31;103267.00;;;23.70
44429;BMP180;30134;47.866;-4.222;2023-02-02T04:11:57;103258.00;;;23.70
44429;BMP180;30134;47.866;-4.222;2023-02-02T04:14:23;103256.00;;;23.80
44429;BMP180;30134;47.866;-4.222;2023-02-02T04:16:49;103254.00;;;23.70
44429;BMP180;30134;47.866;-4.222;2023-02-02T04:19:15;103260.00;;;23.70
44429;BMP180;30134;47.866;-4.222;2023-02-02T04:21:41;103249.00;;;23.70
44429;BMP180;30134;47.866;-4.222;2023-02-02T04:24:11;103248.00;;;23.70
44429;BMP180;30134;47.866;-4.222;2023-02-02T04:26:37;103254.00;;;23.70
44429;BMP180;30134;47.866;-4.222;2023-02-02T04:29:02;103260.00;;;23.70
44429;BMP180;30134;47.866;-4.222;2023-02-02T04:31:31;103254.00;;;23.70
44429;BMP180;30134;47.866;-4.222;2023-02-02T04:33:58;103253.00;;;23.70
44429;BMP180;30134;47.866;-4.222;2023-02-02T04:36:24;103250.00;;;23.70
44429;BMP180;30134;47.866;-4.222;2023-02-02T04:38:51;103248.00;;;23.70
44429;BMP180;30134;47.866;-4.222;2023-02-02T04:41:17;103247.00;;;23.70
44429;BMP180;30134;47.866;-4.222;2023-02-02T04:43:46;103242.00;;;23.70
44429;BMP180;30134;47.866;-4.222;2023-02-02T04:46:12;103254.00;;;23.70
44429;BMP180;30134;47.866;-4.222;2023-02-02T04:48:38;103262.00;;;23.70
44429;BMP180;30134;47.866;-4.222;2023-02-02T04:51:08;103259.00;;;23.70
44429;BMP180;30134;47.866;-4.222;2023-02-02T04:53:34;103263.00;;;23.70
44429;BMP180;30134;47.866;-4.222;2023-02-02T04:56:18;103261.00;;;23.70
44429;BMP180;30134;47.866;-4.222;2023-02-02T04:58:44;103266.00;;;23.70
44429;BMP180;30134;47.866;-4.222;2023-02-02T05:01:19;103266.00;;;23.70
44429;BMP180;30134;47.866;-4.222;2023-02-02T05:03:45;103264.00;;;23.70
44429;BMP180;30134;47.866;-4.222;2023-02-02T05:06:12;103268.00;;;23.70
44429;BMP180;30134;47.866;-4.222;2023-02-02T05:08:38;103268.00;;;23.80
44429;BMP180;30134;47.866;-4.222;2023-02-02T05:11:06;103276.00;;;23.70
44429;BMP180;30134;47.866;-4.222;2023-02-02T05:13:32;103277.00;;;23.70
44429;BMP180;30134;47.866;-4.222;2023-02-02T05:15:58;103275.00;;;23.70
44429;BMP180;30134;47.866;-4.222;2023-02-02T05:18:24;103276.00;;;23.70
44429;BMP180;30134;47.866;-4.222;2023-02-02T05:20:51;103278.00;;;23.70
44429;BMP180;30134;47.866;-4.222;2023-02-02T05:23:18;103278.00;;;23.70
44429;BMP180;30134;47.866;-4.222;2023-02-02T05:25:44;103273.00;;;23.70
44429;BMP180;30134;47.866;-4.222;2023-02-02T05:28:09;103274.00;;;23.70
44429;BMP180;30134;47.866;-4.222;2023-02-02T05:30:38;103272.00;;;23.70
44429;BMP180;30134;47.866;-4.222;2023-02-02T05:33:05;103279.00;;;23.70
44429;BMP180;30134;47.866;-4.222;2023-02-02T05:35:30;103275.00;;;23.70
44429;BMP180;30134;47.866;-4.222;2023-02-02T05:37:56;103275.00;;;23.70
44429;BMP180;30134;47.866;-4.222;2023-02-02T05:40:22;103280.00;;;23.70
44429;BMP180;30134;47.866;-4.222;2023-02-02T05:42:48;103283.00;;;23.70
44429;BMP180;30134;47.866;-4.222;2023-02-02T05:45:14;103288.00;;;23.70
44429;BMP180;30134;47.866;-4.222;2023-02-02T05:47:40;103290.00;;;23.70
44429;BMP180;30134;47.866;-4.222;2023-02-02T05:50:06;103293.00;;;23.70
44429;BMP180;30134;47.866;-4.222;2023-02-02T05:52:33;103293.00;;;23.70
44429;BMP180;30134;47.866;-4.222;2023-02-02T05:54:59;103296.00;;;23.70
44429;BMP180;30134;47.866;-4.222;2023-02-02T05:57:25;103295.00;;;23.70
44429;BMP180;30134;47.866;-4.222;2023-02-02T05:59:53;103296.00;;;23.70
44429;BMP180;30134;47.866;-4.222;2023-02-02T06:02:19;103299.00;;;23.70
44429;BMP180;30134;47.866;-4.222;2023-02-02T06:04:45;103301.00;;;23.70
44429;BMP180;30134;47.866;-4.222;2023-02-02T06:07:11;103308.00;;;23.70
44429;BMP180;30134;47.866;-4.222;2023-02-02T06:09:37;103314.00;;;23.80
44429;BMP180;30134;47.866;-4.222;2023-02-02T06:12:04;103309.00;;;23.70
44429;BMP180;30134;47.866;-4.222;2023-02-02T06:14:30;103309.00;;;23.70
44429;BMP180;30134;47.866;-4.222;2023-02-02T06:16:56;103313.00;;;23.70
44429;BMP180;30134;47.866;-4.222;2023-02-02T06:19:22;103309.00;;;23.70
44429;BMP180;30134;47.866;-4.222;2023-02-02T06:21:48;103306.00;;;23.70
44429;BMP180;30134;47.866;-4.222;2023-02-02T06:24:13;103306.00;;;23.70
44429;BMP180;30134;47.866;-4.222;2023-02-02T06:26:39;103309.00;;;23.70
44429;BMP180;30134;47.866;-4.222;2023-02-02T06:29:05;103314.00;;;23.80
44429;BMP180;30134;47.866;-4.222;2023-02-02T06:31:31;103314.00;;;23.70
44429;BMP180;30134;47.866;-4.222;2023-02-02T06:33:58;103322.00;;;23.70
44429;BMP180;30134;47.866;-4.222;2023-02-02T06:36:25;103317.00;;;23.80
44429;BMP180;30134;47.866;-4.222;2023-02-02T06:38:53;103319.00;;;23.70
44429;BMP180;30134;47.866;-4.222;2023-02-02T06:41:20;103322.00;;;23.70
44429;BMP180;30134;47.866;-4.222;2023-02-02T06:43:47;103322.00;;;23.70
44429;BMP180;30134;47.866;-4.222;2023-02-02T06:46:13;103321.00;;;23.80
44429;BMP180;30134;47.866;-4.222;2023-02-02T06:48:39;103326.00;;;23.80
44429;BMP180;30134;47.866;-4.222;2023-02-02T06:51:05;103328.00;;;23.70
44429;BMP180;30134;47.866;-4.222;2023-02-02T06:53:32;103328.00;;;23.70
44429;BMP180;30134;47.866;-4.222;2023-02-02T06:55:59;103333.00;;;23.80
44429;BMP180;30134;47.866;-4.222;2023-02-02T06:58:27;103339.00;;;23.70
44429;BMP180;30134;47.866;-4.222;2023-02-02T07:00:53;103351.00;;;23.70
44429;BMP180;30134;47.866;-4.222;2023-02-02T07:03:19;103347.00;;;23.70
44429;BMP180;30134;47.866;-4.222;2023-02-02T07:05:48;103358.00;;;23.70
44429;BMP180;30134;47.866;-4.222;2023-02-02T07:08:14;103355.00;;;23.80
44429;BMP180;30134;47.866;-4.222;2023-02-02T07:10:40;103349.00;;;23.70
44429;BMP180;30134;47.866;-4.222;2023-02-02T07:13:08;103342.00;;;23.70
44429;BMP180;30134;47.866;-4.222;2023-02-02T07:15:37;103350.00;;;23.80
44429;BMP180;30134;47.866;-4.222;2023-02-02T07:18:03;103345.00;;;23.70
44429;BMP180;30134;47.866;-4.222;2023-02-02T07:20:29;103349.00;;;23.70
44429;BMP180;30134;47.866;-4.222;2023-02-02T07:22:55;103350.00;;;23.70
44429;BMP180;30134;47.866;-4.222;2023-02-02T07:25:21;103352.00;;;23.70
44429;BMP180;30134;47.866;-4.222;2023-02-02T07:27:48;103347.00;;;23.70
44429;BMP180;30134;47.866;-4.222;2023-02-02T07:30:16;103352.00;;;23.80
44429;BMP180;30134;47.866;-4.222;2023-02-02T07:32:49;103351.00;;;23.70
44429;BMP180;30134;47.866;-4.222;2023-02-02T07:35:16;103352.00;;;23.80
44429;BMP180;30134;47.866;-4.222;2023-02-02T07:37:42;103347.00;;;23.70
44429;BMP180;30134;47.866;-4.222;2023-02-02T07:40:08;103351.00;;;23.70
44429;BMP180;30134;47.866;-4.222;2023-02-02T07:42:35;103351.00;;;23.70
44429;BMP180;30134;47.866;-4.222;2023-02-02T07:45:01;103347.00;;;23.70
44429;BMP180;30134;47.866;-4.222;2023-02-02T07:47:27;103345.00;;;23.70
44429;BMP180;30134;47.866;-4.222;2023-02-02T07:49:53;103351.00;;;23.80
44429;BMP180;30134;47.866;-4.222;2023-02-02T07:52:19;103355.00;;;23.70
44429;BMP180;30134;47.866;-4.222;2023-02-02T07:54:45;103357.00;;;23.80
44429;BMP180;30134;47.866;-4.222;2023-02-02T07:57:10;103359.00;;;23.70
44429;BMP180;30134;47.866;-4.222;2023-02-02T07:59:43;103363.00;;;23.70
44429;BMP180;30134;47.866;-4.222;2023-02-02T08:02:09;103361.00;;;23.80
44429;BMP180;30134;47.866;-4.222;2023-02-02T08:04:35;103360.00;;;23.80
44429;BMP180;30134;47.866;-4.222;2023-02-02T08:07:01;103362.00;;;23.70
44429;BMP180;30134;47.866;-4.222;2023-02-02T08:09:27;103364.00;;;23.80
44429;BMP180;30134;47.866;-4.222;2023-02-02T08:11:53;103372.00;;;23.70
44429;BMP180;30134;47.866;-4.222;2023-02-02T08:14:18;103376.00;;;23.80
44429;BMP180;30134;47.866;-4.222;2023-02-02T08:16:44;103372.00;;;23.70
44429;BMP180;30134;47.866;-4.222;2023-02-02T08:19:10;103371.00;;;23.80
44429;BMP180;30134;47.866;-4.222;2023-02-02T08:21:36;103376.00;;;23.80
44429;BMP180;30134;47.866;-4.222;2023-02-02T08:24:02;103372.00;;;23.70
44429;BMP180;30134;47.866;-4.222;2023-02-02T08:26:30;103377.00;;;23.70
44429;BMP180;30134;47.866;-4.222;2023-02-02T08:28:57;103379.00;;;23.80
44429;BMP180;30134;47.866;-4.222;2023-02-02T08:31:26;103378.00;;;23.70
44429;BMP180;30134;47.866;-4.222;2023-02-02T08:33:52;103379.00;;;23.80
44429;BMP180;30134;47.866;-4.222;2023-02-02T08:36:21;103382.00;;;23.70
44429;BMP180;30134;47.866;-4.222;2023-02-02T08:38:50;103384.00;;;23.80
44429;BMP180;30134;47.866;-4.222;2023-02-02T08:41:19;103385.00;;;23.70
44429;BMP180;30134;47.866;-4.222;2023-02-02T08:43:45;103396.00;;;23.70
44429;BMP180;30134;47.866;-4.222;2023-02-02T08:46:12;103398.00;;;23.70
44429;BMP180;30134;47.866;-4.222;2023-02-02T08:48:39;103410.00;;;23.80
44429;BMP180;30134;47.866;-4.222;2023-02-02T08:51:08;103417.00;;;23.70
44429;BMP180;30134;47.866;-4.222;2023-02-02T08:53:34;103417.00;;;23.70
44429;BMP180;30134;47.866;-4.222;2023-02-02T08:56:05;103421.00;;;23.70
44429;BMP180;30134;47.866;-4.222;2023-02-02T08:58:32;103417.00;;;23.70
44429;BMP180;30134;47.866;-4.222;2023-02-02T09:01:12;103424.00;;;23.70
44429;BMP180;30134;47.866;-4.222;2023-02-02T09:03:38;103424.00;;;23.70
44429;BMP180;30134;47.866;-4.222;2023-02-02T09:06:10;103430.00;;;23.70
44429;BMP180;30134;47.866;-4.222;2023-02-02T09:08:36;103430.00;;;23.70
44429;BMP180;30134;47.866;-4.222;2023-02-02T09:11:10;103439.00;;;23.70
44429;BMP180;30134;47.866;-4.222;2023-02-02T09:13:37;103438.00;;;23.70
44429;BMP180;30134;47.866;-4.222;2023-02-02T09:16:06;103441.00;;;23.80
44429;BMP180;30134;47.866;-4.222;2023-02-02T09:18:33;103452.00;;;23.70
44429;BMP180;30134;47.866;-4.222;2023-02-02T09:21:03;103446.00;;;23.70
44429;BMP180;30134;47.866;-4.222;2023-02-02T09:23:35;103460.00;;;23.70
44429;BMP180;30134;47.866;-4.222;2023-02-02T09:26:11;103461.00;;;23.70
44429;BMP180;30134;47.866;-4.222;2023-02-02T09:28:39;103460.00;;;23.70
44429;BMP180;30134;47.866;-4.222;2023-02-02T09:31:06;103452.00;;;23.70
44429;BMP180;30134;47.866;-4.222;2023-02-02T09:33:32;103460.00;;;23.70
44429;BMP180;30134;47.866;-4.222;2023-02-02T09:36:06;103473.00;;;23.70
44429;BMP180;30134;47.866;-4.222;2023-02-02T09:38:32;103467.00;;;23.80
44429;BMP180;30134;47.866;-4.222;2023-02-02T09:40:59;103467.00;;;23.70
44429;BMP180;30134;47.866;-4.222;2023-02-02T09:43:47;103469.00;;;23.80
44429;BMP180;30134;47.866;-4.222;2023-02-02T09:49:05;103470.00;;;23.80
44429;BMP180;30134;47.866;-4.222;2023-02-02T09:51:34;103477.00;;;23.80
44429;BMP180;30134;47.866;-4.222;2023-02-02T09:54:20;103476.00;;;23.80
44429;BMP180;30134;47.866;-4.222;2023-02-02T09:56:50;103481.00;;;23.80
44429;BMP180;30134;47.866;-4.222;2023-02-02T09:59:26;103476.00;;;23.80
44429;BMP180;30134;47.866;-4.222;2023-02-02T10:02:00;103486.00;;;23.80
44429;BMP180;30134;47.866;-4.222;2023-02-02T10:04:37;103488.00;;;23.80
44429;BMP180;30134;47.866;-4.222;2023-02-02T10:07:16;103494.00;;;23.80
44429;BMP180;30134;47.866;-4.222;2023-02-02T10:10:11;103497.00;;;23.80
44429;BMP180;30134;47.866;-4.222;2023-02-02T10:12:43;103494.00;;;23.80
44429;BMP180;30134;47.866;-4.222;2023-02-02T10:18:15;103491.00;;;23.80
44429;BMP180;30134;47.866;-4.222;2023-02-02T10:21:05;103490.00;;;23.80
44429;BMP180;30134;47.866;-4.222;2023-02-02T10:23:38;103494.00;;;23.80
44429;BMP180;30134;47.866;-4.222;2023-02-02T10:26:18;103499.00;;;23.80
44429;BMP180;30134;47.866;-4.222;2023-02-02T10:31:48;103499.00;;;23.70
44429;BMP180;30134;47.866;-4.222;2023-02-02T10:42:17;103504.00;;;23.70
44429;BMP180;30134;47.866;-4.222;2023-02-02T10:44:49;103513.00;;;23.80
44429;BMP180;30134;47.866;-4.222;2023-02-02T10:47:29;103517.00;;;23.80
44429;BMP180;30134;47.866;-4.222;2023-02-02T10:52:59;103525.00;;;23.80
44429;BMP180;30134;47.866;-4.222;2023-02-02T10:55:36;103524.00;;;23.80
44429;BMP180;30134;47.866;-4.222;2023-02-02T11:00:46;103532.00;;;23.80
44429;BMP180;30134;47.866;-4.222;2023-02-02T11:03:27;103527.00;;;23.80
44429;BMP180;30134;47.866;-4.222;2023-02-02T11:05:55;103526.00;;;23.80
44429;BMP180;30134;47.866;-4.222;2023-02-02T11:08:44;103522.00;;;23.80
44429;BMP180;30134;47.866;-4.222;2023-02-02T11:11:33;103527.00;;;23.80
44429;BMP180;30134;47.866;-4.222;2023-02-02T11:16:30;103522.00;;;23.80
44429;BMP180;30134;47.866;-4.222;2023-02-02T11:18:56;103524.00;;;23.80
44429;BMP180;30134;47.866;-4.222;2023-02-02T11:21:33;103523.00;;;23.80
44429;BMP180;30134;47.866;-4.222;2023-02-02T11:26:25;103515.00;;;23.80
44429;BMP180;30134;47.866;-4.222;2023-02-02T11:28:53;103512.00;;;23.80
44429;BMP180;30134;47.866;-4.222;2023-02-02T11:31:36;103508.00;;;23.80
44429;BMP180;30134;47.866;-4.222;2023-02-02T11:34:26;103513.00;;;23.80
44429;BMP180;30134;47.866;-4.222;2023-02-02T11:37:12;103508.00;;;23.80
44429;BMP180;30134;47.866;-4.222;2023-02-02T11:39:41;103512.00;;;23.80
44429;BMP180;30134;47.866;-4.222;2023-02-02T11:44:52;103509.00;;;23.80
44429;BMP180;30134;47.866;-4.222;2023-02-02T11:47:29;103506.00;;;23.80
44429;BMP180;30134;47.866;-4.222;2023-02-02T11:49:58;103499.00;;;23.80
44429;BMP180;30134;47.866;-4.222;2023-02-02T11:52:26;103505.00;;;23.80
44429;BMP180;30134;47.866;-4.222;2023-02-02T11:54:58;103505.00;;;23.80
44429;BMP180;30134;47.866;-4.222;2023-02-02T11:57:27;103493.00;;;23.80
44429;BMP180;30134;47.866;-4.222;2023-02-02T12:02:47;103490.00;;;23.80
44429;BMP180;30134;47.866;-4.222;2023-02-02T12:05:31;103495.00;;;23.80
44429;BMP180;30134;47.866;-4.222;2023-02-02T12:07:57;103496.00;;;23.80
44429;BMP180;30134;47.866;-4.222;2023-02-02T12:10:50;103488.00;;;23.80
44429;BMP180;30134;47.866;-4.222;2023-02-02T12:13:41;103482.00;;;23.80
44429;BMP180;30134;47.866;-4.222;2023-02-02T12:26:39;103466.00;;;23.80
44429;BMP180;30134;47.866;-4.222;2023-02-02T12:32:08;103472.00;;;23.80
44429;BMP180;30134;47.866;-4.222;2023-02-02T12:57:00;103450.00;;;23.70
44429;BMP180;30134;47.866;-4.222;2023-02-02T12:59:47;103448.00;;;23.70
44429;BMP180;30134;47.866;-4.222;2023-02-02T13:07:51;103443.00;;;23.70
44429;BMP180;30134;47.866;-4.222;2023-02-02T13:10:41;103437.00;;;23.80
44429;BMP180;30134;47.866;-4.222;2023-02-02T13:13:15;103437.00;;;23.80
44429;BMP180;30134;47.866;-4.222;2023-02-02T13:15:53;103437.00;;;23.80
44429;BMP180;30134;47.866;-4.222;2023-02-02T13:18:38;103432.00;;;23.80
44429;BMP180;30134;47.866;-4.222;2023-02-02T13:21:11;103428.00;;;23.80
44429;BMP180;30134;47.866;-4.222;2023-02-02T13:23:48;103435.00;;;23.80
44429;BMP180;30134;47.866;-4.222;2023-02-02T13:26:19;103433.00;;;23.80
44429;BMP180;30134;47.866;-4.222;2023-02-02T13:34:38;103431.00;;;23.80
44429;BMP180;30134;47.866;-4.222;2023-02-02T13:39:43;103432.00;;;23.80
44429;BMP180;30134;47.866;-4.222;2023-02-02T13:42:23;103430.00;;;23.80
44429;BMP180;30134;47.866;-4.222;2023-02-02T13:44:55;103431.00;;;23.90
44429;BMP180;30134;47.866;-4.222;2023-02-02T13:47:29;103424.00;;;23.90
44429;BMP180;30134;47.866;-4.222;2023-02-02T13:50:03;103429.00;;;23.90
44429;BMP180;30134;47.866;-4.222;2023-02-02T13:55:45;103430.00;;;23.90
44429;BMP180;30134;47.866;-4.222;2023-02-02T14:00:55;103422.00;;;23.90
44429;BMP180;30134;47.866;-4.222;2023-02-02T14:08:59;103419.00;;;23.90
44429;BMP180;30134;47.866;-4.222;2023-02-02T14:13:58;103423.00;;;23.80
44429;BMP180;30134;47.866;-4.222;2023-02-02T14:16:46;103431.00;;;23.80
44429;BMP180;30134;47.866;-4.222;2023-02-02T14:30:35;103436.00;;;23.90
44429;BMP180;30134;47.866;-4.222;2023-02-02T14:33:38;103437.00;;;23.80
44429;BMP180;30134;47.866;-4.222;2023-02-02T14:36:11;103434.00;;;23.80
44429;BMP180;30134;47.866;-4.222;2023-02-02T14:38:48;103434.00;;;23.80
44429;BMP180;30134;47.866;-4.222;2023-02-02T14:44:09;103439.00;;;23.90
44429;BMP180;30134;47.866;-4.222;2023-02-02T14:46:39;103437.00;;;23.90
44429;BMP180;30134;47.866;-4.222;2023-02-02T14:49:11;103431.00;;;23.80
44429;BMP180;30134;47.866;-4.222;2023-02-02T14:51:45;103440.00;;;23.80
44429;BMP180;30134;47.866;-4.222;2023-02-02T14:54:33;103439.00;;;23.80
44429;BMP180;30134;47.866;-4.222;2023-02-02T14:57:16;103435.00;;;23.80
44429;BMP180;30134;47.866;-4.222;2023-02-02T14:59:44;103432.00;;;23.80
44429;BMP180;30134;47.866;-4.222;2023-02-02T15:04:49;103432.00;;;23.80
44429;BMP180;30134;47.866;-4.222;2023-02-02T15:09:55;103446.00;;;23.80
44429;BMP180;30134;47.866;-4.222;2023-02-02T15:12:31;103446.00;;;23.80
44429;BMP180;30134;47.866;-4.222;2023-02-02T15:15:11;103444.00;;;23.80
44429;BMP180;30134;47.866;-4.222;2023-02-02T15:17:43;103451.00;;;23.70
44429;BMP180;30134;47.866;-4.222;2023-02-02T15:20:21;103455.00;;;23.70
44429;BMP180;30134;47.866;-4.222;2023-02-02T15:22:59;103452.00;;;23.70
44429;BMP180;30134;47.866;-4.222;2023-02-02T15:25:29;103457.00;;;23.70
44429;BMP180;30134;47.866;-4.222;2023-02-02T15:28:16;103454.00;;;23.70
44429;BMP180;30134;47.866;-4.222;2023-02-02T15:30:48;103454.00;;;23.70
44429;BMP180;30134;47.866;-4.222;2023-02-02T15:33:26;103448.00;;;23.70
44429;BMP180;30134;47.866;-4.222;2023-02-02T15:35:53;103444.00;;;23.70
44429;BMP180;30134;47.866;-4.222;2023-02-02T15:38:19;103450.00;;;23.70
44429;BMP180;30134;47.866;-4.222;2023-02-02T15:40:46;103453.00;;;23.70
44429;BMP180;30134;47.866;-4.222;2023-02-02T15:43:14;103455.00;;;23.70
44429;BMP180;30134;47.866;-4.222;2023-02-02T15:50:47;103475.00;;;23.70
44429;BMP180;30134;47.866;-4.222;2023-02-02T15:53:18;103472.00;;;23.70
44429;BMP180;30134;47.866;-4.222;2023-02-02T15:55:45;103469.00;;;23.70
44429;BMP180;30134;47.866;-4.222;2023-02-02T15:58:30;103470.00;;;23.70
44429;BMP180;30134;47.866;-4.222;2023-02-02T16:01:00;103468.00;;;23.70
44429;BMP180;30134;47.866;-4.222;2023-02-02T16:06:07;103455.00;;;23.60
44429;BMP180;30134;47.866;-4.222;2023-02-02T16:08:35;103467.00;;;23.60
44429;BMP180;30134;47.866;-4.222;2023-02-02T16:13:37;103462.00;;;23.60
44429;BMP180;30134;47.866;-4.222;2023-02-02T16:16:18;103464.00;;;23.60
44429;BMP180;30134;47.866;-4.222;2023-02-02T16:18:45;103457.00;;;23.60
44429;BMP180;30134;47.866;-4.222;2023-02-02T16:21:16;103463.00;;;23.60
44429;BMP180;30134;47.866;-4.222;2023-02-02T16:23:44;103458.00;;;23.60
44429;BMP180;30134;47.866;-4.222;2023-02-02T16:26:11;103464.00;;;23.60
44429;BMP180;30134;47.866;-4.222;2023-02-02T16:28:39;103466.00;;;23.60
44429;BMP180;30134;47.866;-4.222;2023-02-02T16:31:05;103467.00;;;23.60
44429;BMP180;30134;47.866;-4.222;2023-02-02T16:33:40;103469.00;;;23.60
44429;BMP180;30134;47.866;-4.222;2023-02-02T16:36:27;103471.00;;;23.60
44429;BMP180;30134;47.866;-4.222;2023-02-02T16:38:55;103473.00;;;23.60
44429;BMP180;30134;47.866;-4.222;2023-02-02T16:41:30;103479.00;;;23.60
44429;BMP180;30134;47.866;-4.222;2023-02-02T16:44:27;103479.00;;;23.60